Wilson Heron — 9HJW9 — position and weather

sailwx.info

Track history (hours):
 
Tides and Currents Weather Stations Pressure Air Temp Water Temp Dewpoint Dewpoint Depression Visibility Wind Speed Wind Dir Waves Ship Positions

Wilson Heron

Last reported at 2015-Apr-17 07:07 UTC. Time now 2015-Apr-21 23:27 UTC.
Position N 63°21' E 008°23'.

Length 91 m; draft 6 m.

Type: Cargo ship. MMSI: 249075000.

Date/timePositionNaut miles runAvg speedWind from/ knotsBaromVisibWave heightAir tempDewpointWater temp
2015-Apr-17 07:07N 63°21' E 008°23'263 7.8
2015-Apr-15 21:13N 59°21' E 004°39'5 8.2
2015-Apr-15 20:33N 59°16' E 004°41'8 8.2
2015-Apr-15 19:33N 59°08' E 004°45'8 8.3
2015-Apr-15 18:33N 59°01' E 004°53'9 8.7
2015-Apr-15 17:33N 58°53' E 005°01'9 8.9
2015-Apr-15 16:33N 58°45' E 005°08'13 8.7
2015-Apr-15 15:06N 58°34' E 005°20'5 8.9
2015-Apr-15 14:31N 58°29' E 005°24'9 8.7
2015-Apr-15 13:31N 58°23' E 005°34'8 8.6
2015-Apr-15 12:33N 58°15' E 005°42'9 8.5
2015-Apr-15 11:29N 58°06' E 005°45'232 8.5
2015-Apr-14 08:04N 54°17' E 004°47'6 8.6
2015-Apr-14 07:25N 54°11' E 004°47'9 9.7
2015-Apr-14 06:29N 54°02' E 004°49'9 9.9
2015-Apr-14 05:33N 53°53' E 004°50'8 8.5
2015-Apr-14 04:33N 53°44' E 004°52'8 8.4
2015-Apr-14 03:33N 53°36' E 004°50'9 8.9
2015-Apr-14 02:33N 53°28' E 004°45'9 9.4
2015-Apr-14 01:33N 53°19' E 004°38'10 9.8
2015-Apr-14 00:33N 53°10' E 004°31'1010.0
2015-Apr-13 23:33N 53°01' E 004°23'1010.0
2015-Apr-13 22:33N 52°53' E 004°15'20 9.9
2015-Apr-13 20:33N 52°38' E 003°54'9 9.5
2015-Apr-13 19:33N 52°31' E 003°43'9 9.4
2015-Apr-13 18:33N 52°24' E 003°33'10 9.6
2015-Apr-13 17:33N 52°17' E 003°22'10 8.2
2015-Apr-13 16:23N 52°09' E 003°12'40 8.3
2015-Apr-13 11:31N 51°39' E 002°29'9 9.3
2015-Apr-13 10:33N 51°32' E 002°20'10 9.5
2015-Apr-13 09:33N 51°24' E 002°12'10 9.8
2015-Apr-13 08:33N 51°16' E 002°04'1010.3
2015-Apr-13 07:33N 51°09' E 001°52'1211.6
2015-Apr-13 06:33N 51°01' E 001°38'127 8.8
2015-Apr-12 16:08N 50°05' W 001°21'427 8.2
2015-Apr-10 12:25N 43°43' W 005°58'6 0.3
2015-Apr-09 14:13N 43°37' W 006°00'313 8.5
2015-Apr-08 01:17N 39°16' W 009°50'811.2
2015-Apr-08 00:32N 39°08' W 009°50'1111.2
2015-Apr-07 23:31N 38°56' W 009°50'1111.0
2015-Apr-07 22:32N 38°45' W 009°51'1111.1
2015-Apr-07 21:32N 38°35' W 009°48'1211.9
2015-Apr-07 20:33N 38°23' W 009°45'1111.1
2015-Apr-07 19:34N 38°12' W 009°41'1111.2
2015-Apr-07 18:33N 38°01' W 009°38'1211.7
2015-Apr-07 17:32N 37°50' W 009°35'1212.0
2015-Apr-07 16:33N 37°38' W 009°31'1212.2
2015-Apr-07 15:32N 37°26' W 009°28'5210.3
2015-Apr-07 10:32N 36°43' W 008°52'1111.5
2015-Apr-07 09:33N 36°44' W 008°38'1111.4
2015-Apr-07 08:33N 36°44' W 008°23'1211.8
2015-Apr-07 07:33N 36°44' W 008°09'  
Track history (hours):
 
Tides and Currents Weather Stations Pressure Air Temp Water Temp Dewpoint Dewpoint Depression Visibility Wind Speed Wind Dir Waves Ship Positions

Wilson Heron

Last reported at 2015-Apr-17 07:07 UTC. Time now 2015-Apr-21 23:27 UTC.
Position N 63°21' E 008°23'.

Length 91 m; draft 6 m.

Type: Cargo ship. MMSI: 249075000.

Date/timePositionNaut miles runAvg speedWind from/ knotsBaromVisibWave heightAir tempDewpointWater temp
2015-Apr-17 07:07N 63°21' E 008°23'263 7.8
2015-Apr-15 21:13N 59°21' E 004°39'5 8.2
2015-Apr-15 20:33N 59°16' E 004°41'8 8.2
2015-Apr-15 19:33N 59°08' E 004°45'8 8.3
2015-Apr-15 18:33N 59°01' E 004°53'9 8.7
2015-Apr-15 17:33N 58°53' E 005°01'9 8.9
2015-Apr-15 16:33N 58°45' E 005°08'13 8.7
2015-Apr-15 15:06N 58°34' E 005°20'5 8.9
2015-Apr-15 14:31N 58°29' E 005°24'9 8.7
2015-Apr-15 13:31N 58°23' E 005°34'8 8.6
2015-Apr-15 12:33N 58°15' E 005°42'9 8.5
2015-Apr-15 11:29N 58°06' E 005°45'232 8.5
2015-Apr-14 08:04N 54°17' E 004°47'6 8.6
2015-Apr-14 07:25N 54°11' E 004°47'9 9.7
2015-Apr-14 06:29N 54°02' E 004°49'9 9.9
2015-Apr-14 05:33N 53°53' E 004°50'8 8.5
2015-Apr-14 04:33N 53°44' E 004°52'8 8.4
2015-Apr-14 03:33N 53°36' E 004°50'9 8.9
2015-Apr-14 02:33N 53°28' E 004°45'9 9.4
2015-Apr-14 01:33N 53°19' E 004°38'10 9.8
2015-Apr-14 00:33N 53°10' E 004°31'1010.0
2015-Apr-13 23:33N 53°01' E 004°23'1010.0
2015-Apr-13 22:33N 52°53' E 004°15'20 9.9
2015-Apr-13 20:33N 52°38' E 003°54'9 9.5
2015-Apr-13 19:33N 52°31' E 003°43'9 9.4
2015-Apr-13 18:33N 52°24' E 003°33'10 9.6
2015-Apr-13 17:33N 52°17' E 003°22'10 8.2
2015-Apr-13 16:23N 52°09' E 003°12'40 8.3
2015-Apr-13 11:31N 51°39' E 002°29'9 9.3
2015-Apr-13 10:33N 51°32' E 002°20'10 9.5
2015-Apr-13 09:33N 51°24' E 002°12'10 9.8
2015-Apr-13 08:33N 51°16' E 002°04'1010.3
2015-Apr-13 07:33N 51°09' E 001°52'1211.6
2015-Apr-13 06:33N 51°01' E 001°38'127 8.8
2015-Apr-12 16:08N 50°05' W 001°21'427 8.2
2015-Apr-10 12:25N 43°43' W 005°58'6 0.3
2015-Apr-09 14:13N 43°37' W 006°00'313 8.5
2015-Apr-08 01:17N 39°16' W 009°50'811.2
2015-Apr-08 00:32N 39°08' W 009°50'1111.2
2015-Apr-07 23:31N 38°56' W 009°50'1111.0
2015-Apr-07 22:32N 38°45' W 009°51'1111.1
2015-Apr-07 21:32N 38°35' W 009°48'1211.9
2015-Apr-07 20:33N 38°23' W 009°45'1111.1
2015-Apr-07 19:34N 38°12' W 009°41'1111.2
2015-Apr-07 18:33N 38°01' W 009°38'1211.7
2015-Apr-07 17:32N 37°50' W 009°35'1212.0
2015-Apr-07 16:33N 37°38' W 009°31'1212.2
2015-Apr-07 15:32N 37°26' W 009°28'5210.3
2015-Apr-07 10:32N 36°43' W 008°52'1111.5
2015-Apr-07 09:33N 36°44' W 008°38'1111.4
2015-Apr-07 08:33N 36°44' W 008°23'1211.8
2015-Apr-07 07:33N 36°44' W 008°09'  

Dump ship's entire track history